Time;durP1;ratioP1;P1;durP2;ratioP2;P2;SDS_P1;SDS_P2;PMS_P1;PMS_P2;Temp;Humidity;BMP_temperature;BMP_pressure;BME280_temperature;BME280_humidity;BME280_pressure;Samples;Min_cycle;Max_cycle;Signal;HPM_P1;HPM_P2
2021/03/16 00:00:31;;;;;;;27.83;4.45;;;;;;;4.27;84.37;102112.13;5094047;28;20120;-73
2021/03/16 00:02:57;;;;;;;25.45;3.83;;;;;;;4.17;84.69;102105.50;5092633;28;20096;-72
2021/03/16 00:05:22;;;;;;;27.38;4.10;;;;;;;4.10;85.13;102112.97;5094458;28;20343;-72
2021/03/16 00:07:47;;;;;;;27.65;5.28;;;;;;;3.91;85.87;102117.25;5093073;28;20473;-72
2021/03/16 00:10:13;;;;;;;24.80;4.05;;;;;;;4.01;85.19;102118.66;5095421;28;20069;-71
2021/03/16 00:12:39;;;;;;;28.00;4.38;;;;;;;4.03;85.34;102119.59;5092715;28;20403;-72
2021/03/16 00:15:05;;;;;;;25.08;3.92;;;;;;;4.02;85.70;102115.22;5094507;28;20047;-72
2021/03/16 00:17:30;;;;;;;27.67;4.40;;;;;;;4.03;85.51;102122.22;5092854;28;20020;-73
2021/03/16 00:19:55;;;;;;;31.08;5.05;;;;;;;4.05;85.55;102124.91;5094868;28;20100;-72
2021/03/16 00:22:21;;;;;;;29.77;5.55;;;;;;;4.11;85.00;102131.38;5092221;28;20065;-72
2021/03/16 00:24:46;;;;;;;25.92;4.65;;;;;;;3.98;85.30;102128.97;5092719;28;20024;-73
2021/03/16 00:27:11;;;;;;;29.98;4.55;;;;;;;3.94;86.03;102138.34;5092931;28;20032;-73
2021/03/16 00:29:37;;;;;;;28.33;5.30;;;;;;;3.79;87.19;102135.84;5093809;28;20024;-71
2021/03/16 00:32:03;;;;;;;30.90;5.03;;;;;;;3.93;86.87;102141.81;5093167;28;20494;-72
2021/03/16 00:34:28;;;;;;;31.25;4.60;;;;;;;3.89;87.27;102142.47;5093912;28;20034;-72
2021/03/16 00:36:53;;;;;;;23.15;4.35;;;;;;;3.96;86.14;102141.03;5092295;28;20031;-73
2021/03/16 00:39:19;;;;;;;28.23;4.22;;;;;;;4.03;85.79;102148.41;5092188;28;20485;-72
2021/03/16 00:41:44;;;;;;;23.52;3.88;;;;;;;3.90;86.87;102144.22;5093468;28;20028;-73
2021/03/16 00:44:09;;;;;;;30.20;4.63;;;;;;;3.91;86.79;102147.78;5091891;28;20044;-72
2021/03/16 00:46:35;;;;;;;27.77;4.43;;;;;;;4.00;86.71;102145.63;5094141;28;20370;-72
2021/03/16 00:49:00;;;;;;;30.65;4.57;;;;;;;3.99;87.20;102156.91;5092378;28;20039;-72
2021/03/16 00:51:26;;;;;;;26.98;4.28;;;;;;;4.03;87.12;102155.34;5093143;28;20020;-70
2021/03/16 00:53:52;;;;;;;31.20;4.25;;;;;;;4.12;86.57;102153.22;5091812;28;20055;-73
2021/03/16 00:56:17;;;;;;;18.70;3.10;;;;;;;4.25;85.65;102149.50;5074107;28;20074;-72
2021/03/16 00:58:42;;;;;;;24.60;3.85;;;;;;;4.18;85.95;102149.19;5091072;28;20042;-72
2021/03/16 01:01:08;;;;;;;28.88;4.07;;;;;;;4.10;86.72;102155.75;5093494;28;20050;-72
2021/03/16 01:03:34;;;;;;;30.05;4.10;;;;;;;4.06;86.99;102153.78;5092648;28;20103;-72
2021/03/16 01:06:00;;;;;;;29.52;4.13;;;;;;;4.02;86.72;102154.47;5093052;28;20032;-72
2021/03/16 01:08:26;;;;;;;26.20;3.90;;;;;;;4.04;86.50;102155.44;5092377;28;20020;-72
2021/03/16 01:10:52;;;;;;;27.58;4.63;;;;;;;4.00;86.67;102161.31;5091876;28;20463;-72
2021/03/16 01:13:18;;;;;;;24.52;3.45;;;;;;;4.05;86.45;102167.72;5091887;28;20111;-72
2021/03/16 01:15:43;;;;;;;28.98;4.40;;;;;;;4.05;86.31;102167.72;5093252;28;20051;-72
2021/03/16 01:18:09;;;;;;;30.67;4.70;;;;;;;4.05;86.53;102167.72;5093403;28;20533;-66
2021/03/16 01:20:35;;;;;;;27.42;4.13;;;;;;;4.14;85.72;102173.41;5091970;28;20509;-72
2021/03/16 01:23:01;;;;;;;30.83;4.03;;;;;;;4.06;86.10;102173.84;5092727;28;20028;-71
2021/03/16 01:25:26;;;;;;;27.52;4.35;;;;;;;3.97;86.61;102167.28;5090942;28;20040;-72
2021/03/16 01:27:52;;;;;;;28.08;4.38;;;;;;;3.98;86.48;102168.22;5092465;28;20028;-72
2021/03/16 01:30:18;;;;;;;29.25;4.55;;;;;;;4.05;86.48;102169.41;5091715;28;20369;-71
2021/03/16 01:32:43;;;;;;;25.00;3.75;;;;;;;4.05;86.33;102172.03;5092600;28;20027;-71
2021/03/16 01:35:10;;;;;;;27.88;4.35;;;;;;;4.08;85.99;102178.34;5091956;28;20079;-72
2021/03/16 01:37:44;;;;;;;26.88;4.15;;;;;;;4.07;86.27;102179.16;5092003;28;20036;-72
2021/03/16 01:40:19;;;;;;;27.30;3.97;;;;;;;4.15;85.86;102174.28;5091138;28;20571;-68
2021/03/16 01:42:45;;;;;;;23.42;3.58;;;;;;;4.06;86.55;102179.94;5090000;28;20032;-69
2021/03/16 01:45:12;;;;;;;22.58;3.83;;;;;;;4.15;85.49;102180.44;5073406;28;20020;-71
2021/03/16 01:47:45;;;;;;;31.08;4.78;;;;;;;4.15;85.14;102185.69;5073890;28;20093;-71
2021/03/16 01:50:12;;;;;;;27.33;4.20;;;;;;;4.10;85.68;102179.31;5090638;28;20066;-67
2021/03/16 01:52:38;;;;;;;30.85;4.20;;;;;;;4.01;86.22;102170.97;5091312;28;20482;-72
2021/03/16 01:55:05;;;;;;;28.20;3.90;;;;;;;4.07;85.85;102180.88;5091164;28;20036;-65
2021/03/16 01:57:32;;;;;;;26.75;4.57;;;;;;;4.11;85.38;102175.88;5091028;28;20104;-64
2021/03/16 01:59:58;;;;;;;29.02;4.80;;;;;;;4.10;85.37;102184.53;5091563;28;20036;-72
2021/03/16 02:02:24;;;;;;;27.98;4.35;;;;;;;4.02;86.10;102178.03;5091120;28;20032;-69
2021/03/16 02:04:50;;;;;;;30.25;4.40;;;;;;;3.95;86.78;102184.63;5092682;28;20371;-64
2021/03/16 02:07:22;;;;;;;28.65;4.18;;;;;;;4.01;86.56;102184.06;5091440;28;20466;-69
2021/03/16 02:09:54;;;;;;;29.08;3.90;;;;;;;4.10;85.55;102179.31;5092571;28;20088;-67
2021/03/16 02:12:32;;;;;;;29.27;4.65;;;;;;;4.05;86.00;102180.78;5089117;28;20417;-70
2021/03/16 02:15:05;;;;;;;26.95;3.97;;;;;;;4.13;85.53;102183.81;5089912;28;20020;-67
2021/03/16 02:17:35;;;;;;;27.38;4.05;;;;;;;4.16;84.43;102189.19;5091222;28;20047;-66
2021/03/16 02:20:24;;;;;;;24.05;4.05;;;;;;;4.28;84.35;102187.22;5090546;28;20064;-69
2021/03/16 02:22:51;;;;;;;22.98;3.80;;;;;;;4.28;82.99;102186.31;5091040;28;20032;-66
2021/03/16 02:25:38;;;;;;;27.30;3.60;;;;;;;4.31;83.64;102191.69;5091553;28;20020;-65
2021/03/16 02:28:16;;;;;;;26.65;3.92;;;;;;;4.25;83.33;102183.53;5091374;28;20055;-67
2021/03/16 02:30:43;;;;;;;28.40;3.92;;;;;;;4.16;83.97;102191.81;5090305;28;20029;-68
2021/03/16 02:33:12;;;;;;;23.38;3.00;;;;;;;4.19;83.56;102190.28;5088816;28;20035;-69
2021/03/16 02:35:39;;;;;;;26.55;4.18;;;;;;;4.22;83.42;102191.22;5090733;28;20471;-71
2021/03/16 02:38:07;;;;;;;17.92;3.08;;;;;;;4.29;82.60;102204.72;5090634;28;20399;-70
2021/03/16 02:40:35;;;;;;;20.00;3.38;;;;;;;4.30;82.56;102200.41;5090641;28;20040;-69
2021/03/16 02:43:03;;;;;;;23.08;3.90;;;;;;;4.27;82.78;102205.47;5093361;28;20038;-69
2021/03/16 02:45:30;;;;;;;28.30;4.45;;;;;;;4.15;83.59;102193.53;5090124;28;20462;-68
2021/03/16 02:47:57;;;;;;;26.90;4.40;;;;;;;4.17;83.69;102199.75;5091194;28;20780;-71
2021/03/16 02:50:24;;;;;;;26.92;4.10;;;;;;;4.12;84.12;102203.84;5091874;28;20434;-71
2021/03/16 02:52:52;;;;;;;23.50;3.33;;;;;;;4.13;84.10;102200.41;5090380;28;20028;-70
2021/03/16 02:55:17;;;;;;;23.42;3.58;;;;;;;4.17;83.66;102199.75;5090360;28;20020;-68
2021/03/16 02:57:44;;;;;;;26.70;3.75;;;;;;;4.23;83.57;102203.50;5090928;28;20024;-67
2021/03/16 03:00:11;;;;;;;19.10;3.03;;;;;;;4.30;82.75;102200.41;5092605;28;20028;-65
2021/03/16 03:02:38;;;;;;;23.67;4.05;;;;;;;4.16;84.07;102203.16;5094314;28;20027;-71
2021/03/16 03:05:06;;;;;;;24.70;3.70;;;;;;;4.27;83.26;102200.25;5093966;28;20471;-69
2021/03/16 03:07:33;;;;;;;23.73;3.53;;;;;;;4.26;83.28;102201.06;5095642;28;20035;-66
2021/03/16 03:09:59;;;;;;;26.25;3.85;;;;;;;4.23;83.37;102203.50;5094148;28;20024;-72
2021/03/16 03:12:24;;;;;;;26.80;3.95;;;;;;;4.18;83.64;102206.78;5095399;28;20028;-69
2021/03/16 03:14:50;;;;;;;25.08;4.00;;;;;;;4.20;83.96;102209.47;5094138;28;20030;-69
2021/03/16 03:17:15;;;;;;;25.30;3.67;;;;;;;4.17;84.15;102204.97;5094925;28;20130;-70
2021/03/16 03:19:40;;;;;;;26.58;4.10;;;;;;;4.19;83.33;102212.91;5094425;28;20028;-72
2021/03/16 03:22:11;;;;;;;20.75;3.40;;;;;;;4.24;83.45;102215.75;5095409;28;20040;-69
2021/03/16 03:24:43;;;;;;;28.15;4.40;;;;;;;4.16;83.63;102216.25;5093457;28;20077;-69
2021/03/16 03:27:19;;;;;;;24.53;3.30;;;;;;;4.41;82.83;102224.50;5093222;28;20058;-69
2021/03/16 03:29:47;;;;;;;26.27;4.07;;;;;;;4.28;82.60;102218.66;5094215;28;20357;-67
2021/03/16 03:32:14;;;;;;;22.13;3.30;;;;;;;4.25;82.87;102220.19;5094041;28;20028;-64
2021/03/16 03:34:43;;;;;;;23.13;3.80;;;;;;;4.27;82.33;102215.94;5093483;28;20028;-65
2021/03/16 03:37:09;;;;;;;27.65;3.80;;;;;;;4.27;82.54;102223.81;5092968;28;20494;-70
2021/03/16 03:39:36;;;;;;;26.95;3.40;;;;;;;4.23;83.33;102219.22;5096333;28;20024;-66
2021/03/16 03:42:02;;;;;;;20.80;3.50;;;;;;;4.25;82.85;102218.50;5094139;28;20024;-69
2021/03/16 03:44:31;;;;;;;25.25;4.53;;;;;;;4.25;82.05;102233.28;5093847;28;20094;-69
2021/03/16 03:46:58;;;;;;;25.85;4.50;;;;;;;4.20;82.40;102230.44;5094088;28;20024;-69
2021/03/16 03:49:24;;;;;;;23.63;3.28;;;;;;;4.12;82.50;102227.41;5094937;28;20455;-66
2021/03/16 03:51:51;;;;;;;18.50;3.00;;;;;;;4.25;81.75;102233.28;5093326;28;20383;-68
2021/03/16 03:54:19;;;;;;;23.58;3.58;;;;;;;4.22;81.79;102235.75;5094341;28;20510;-71
2021/03/16 03:56:45;;;;;;;23.45;3.63;;;;;;;4.14;82.33;102235.34;5092708;28;20016;-70
2021/03/16 03:59:13;;;;;;;24.60;3.50;;;;;;;4.02;82.83;102238.22;5094188;28;20040;-70
2021/03/16 04:01:39;;;;;;;23.10;3.50;;;;;;;4.04;82.97;102238.28;5094215;28;20039;-71
2021/03/16 04:04:04;;;;;;;24.88;3.90;;;;;;;3.96;83.15;102236.16;5092356;28;20016;-69
2021/03/16 04:06:31;;;;;;;25.10;3.75;;;;;;;3.86;83.92;102240.81;5094443;28;20027;-67
2021/03/16 04:08:57;;;;;;;24.73;3.67;;;;;;;3.88;83.61;102236.56;5093066;28;20103;-72
2021/03/16 04:11:24;;;;;;;24.00;3.53;;;;;;;3.92;83.29;102242.03;5093188;28;20162;-66
2021/03/16 04:13:52;;;;;;;24.48;4.40;;;;;;;3.90;83.46;102242.78;5094106;28;20032;-69
2021/03/16 04:16:19;;;;;;;25.15;4.05;;;;;;;3.77;84.18;102244.75;5092226;28;20143;-70
2021/03/16 04:18:46;;;;;;;25.65;3.45;;;;;;;3.84;83.69;102246.88;5093264;28;20036;-68
2021/03/16 04:21:13;;;;;;;25.98;3.75;;;;;;;3.71;84.40;102247.00;5093155;28;20024;-69
2021/03/16 04:23:39;;;;;;;23.85;3.60;;;;;;;3.67;85.16;102247.66;5094449;28;20110;-68
2021/03/16 04:26:05;;;;;;;27.52;3.78;;;;;;;3.65;85.19;102247.56;5093309;28;20081;-70
2021/03/16 04:28:30;;;;;;;23.58;3.33;;;;;;;3.65;85.36;102249.28;5093995;28;20028;-67
2021/03/16 04:30:56;;;;;;;28.58;3.90;;;;;;;3.68;85.06;102249.44;5092735;28;20036;-69
2021/03/16 04:33:21;;;;;;;27.60;3.90;;;;;;;3.61;85.62;102249.94;5092935;28;20137;-69
2021/03/16 04:35:48;;;;;;;26.48;4.20;;;;;;;3.61;85.90;102263.91;5091847;28;20416;-70
2021/03/16 04:38:13;;;;;;;28.85;4.43;;;;;;;3.59;85.75;102260.31;5093452;28;20024;-69
2021/03/16 04:40:39;;;;;;;23.80;3.97;;;;;;;3.62;85.67;102265.69;5075282;28;20031;-71
2021/03/16 04:43:06;;;;;;;26.85;4.28;;;;;;;3.57;86.39;102267.19;5093536;28;20028;-72
2021/03/16 04:45:31;;;;;;;24.98;4.30;;;;;;;3.58;87.25;102265.44;5093090;28;20020;-64
2021/03/16 04:47:56;;;;;;;26.25;4.00;;;;;;;3.64;86.95;102268.41;5091107;28;20032;-70
2021/03/16 04:50:22;;;;;;;26.33;4.47;;;;;;;3.70;86.91;102257.38;5094316;28;20024;-64
2021/03/16 04:52:48;;;;;;;27.25;4.05;;;;;;;3.71;86.95;102260.06;5092304;28;20020;-69
2021/03/16 04:55:14;;;;;;;26.77;4.07;;;;;;;3.80;86.51;102260.59;5094139;28;20040;-72
2021/03/16 04:57:39;;;;;;;27.65;4.50;;;;;;;3.75;87.72;102263.78;5091825;28;20031;-72
2021/03/16 05:00:05;;;;;;;26.05;3.63;;;;;;;3.73;88.11;102263.69;5092853;28;20130;-72
2021/03/16 05:02:31;;;;;;;28.55;4.57;;;;;;;3.71;89.02;102270.53;5092183;28;20051;-72
2021/03/16 05:04:56;;;;;;;31.25;4.80;;;;;;;3.72;89.10;102277.59;5094102;28;20070;-67
2021/03/16 05:07:21;;;;;;;25.00;4.40;;;;;;;3.80;87.82;102271.06;5090418;28;20032;-72
2021/03/16 05:09:47;;;;;;;29.30;4.78;;;;;;;3.82;88.01;102277.25;5093097;28;20024;-71
2021/03/16 05:12:12;;;;;;;28.80;4.63;;;;;;;3.77;89.38;102275.22;5093037;28;20074;-72
2021/03/16 05:14:37;;;;;;;29.50;5.93;;;;;;;3.81;89.13;102275.47;5092638;28;20016;-72
2021/03/16 05:17:03;;;;;;;28.55;4.45;;;;;;;3.92;87.92;102280.41;5091411;28;20499;-71
2021/03/16 05:19:28;;;;;;;29.45;4.63;;;;;;;3.92;88.01;102280.41;5092096;28;20409;-71
2021/03/16 05:21:54;;;;;;;28.75;4.90;;;;;;;3.82;89.68;102276.38;5091518;28;20028;-71
2021/03/16 05:24:19;;;;;;;27.00;4.25;;;;;;;3.86;89.32;102277.44;5092366;28;20359;-72
2021/03/16 05:26:44;;;;;;;30.20;4.60;;;;;;;3.81;90.46;102278.06;5091124;28;20028;-70
2021/03/16 05:29:10;;;;;;;27.88;5.03;;;;;;;3.83;90.60;102280.81;5091718;28;20024;-72
2021/03/16 05:31:35;;;;;;;33.10;5.60;;;;;;;3.79;90.27;102290.19;5092885;28;20123;-72
2021/03/16 05:34:00;;;;;;;30.83;4.75;;;;;;;3.74;91.77;102291.66;5091767;28;20088;-73
2021/03/16 05:36:26;;;;;;;33.13;5.22;;;;;;;3.77;91.89;102291.81;5092525;28;20107;-72
2021/03/16 05:38:51;;;;;;;29.50;5.18;;;;;;;3.78;91.73;102287.47;5091799;28;20111;-72
2021/03/16 05:41:18;;;;;;;24.95;4.50;;;;;;;3.79;91.34;102290.19;5091470;28;20050;-72
2021/03/16 05:43:47;;;;;;;30.05;4.32;;;;;;;3.85;90.75;102289.63;5073174;28;20032;-71
2021/03/16 05:46:12;;;;;;;27.52;4.95;;;;;;;3.88;90.85;102294.13;5092057;28;20060;-72
2021/03/16 05:48:40;;;;;;;30.17;4.57;;;;;;;3.88;91.05;102294.13;5093190;28;20024;-72
2021/03/16 05:51:05;;;;;;;27.75;4.43;;;;;;;3.95;90.44;102297.16;5091680;28;20036;-72
2021/03/16 05:53:31;;;;;;;28.42;4.60;;;;;;;4.08;89.48;102310.91;5091922;28;20462;-72
2021/03/16 05:55:58;;;;;;;30.35;5.10;;;;;;;3.96;91.02;102301.59;5091267;28;20024;-73
2021/03/16 05:58:24;;;;;;;32.92;5.13;;;;;;;3.94;91.62;102294.47;5092342;28;20024;-72
2021/03/16 06:00:49;;;;;;;28.30;4.35;;;;;;;3.96;90.92;102303.28;5091060;28;20057;-72
2021/03/16 06:03:15;;;;;;;28.38;4.40;;;;;;;4.05;90.10;102303.81;5092303;28;20600;-72
2021/03/16 06:05:40;;;;;;;28.60;4.38;;;;;;;3.98;91.09;102304.28;5090835;28;20031;-72
2021/03/16 06:08:05;;;;;;;27.63;4.50;;;;;;;3.98;91.09;102322.59;5092040;28;20470;-71
2021/03/16 06:10:33;;;;;;;29.40;4.50;;;;;;;3.97;91.50;102311.22;5091083;28;20031;-71
2021/03/16 06:13:09;;;;;;;28.77;4.60;;;;;;;4.17;89.75;102309.69;5092363;28;20035;-72
2021/03/16 06:15:35;;;;;;;28.92;4.55;;;;;;;4.17;89.07;102324.50;5088042;28;20062;-73
2021/03/16 06:18:00;;;;;;;27.25;4.57;;;;;;;4.10;90.34;102310.16;5091836;28;20035;-71
2021/03/16 06:20:33;;;;;;;28.15;4.93;;;;;;;4.14;90.40;102312.13;5091132;28;20534;-72
2021/03/16 06:23:09;;;;;;;30.17;4.78;;;;;;;4.19;90.25;102321.16;5092038;28;20059;-72
2021/03/16 06:25:37;;;;;;;28.73;5.00;;;;;;;4.19;90.62;102320.22;5090698;28;20034;-72
2021/03/16 06:28:04;;;;;;;27.75;4.32;;;;;;;4.27;89.44;102323.28;5091648;28;20111;-72
2021/03/16 06:30:30;;;;;;;29.52;4.65;;;;;;;4.35;89.24;102315.03;5091527;28;20588;-72
2021/03/16 06:32:56;;;;;;;28.88;4.38;;;;;;;4.45;88.26;102318.13;5091521;28;20236;-72
2021/03/16 06:35:22;;;;;;;27.70;4.25;;;;;;;4.39;88.47;102315.19;5075966;28;20471;-64
2021/03/16 06:38:06;;;;;;;25.98;4.30;;;;;;;4.42;88.12;102315.34;5094242;28;20025;-64
2021/03/16 06:40:32;;;;;;;28.83;4.75;;;;;;;4.40;88.15;102317.88;5094029;28;20063;-66
2021/03/16 06:43:02;;;;;;;28.63;4.43;;;;;;;4.55;87.90;102320.41;5077810;28;20038;-64
2021/03/16 06:45:32;;;;;;;30.77;4.65;;;;;;;4.66;86.90;102320.94;5094227;28;20024;-64
2021/03/16 06:47:58;;;;;;;29.73;4.95;;;;;;;4.65;87.26;102324.41;5095668;28;20471;-64
2021/03/16 06:50:32;;;;;;;30.45;4.60;;;;;;;4.72;87.05;102316.94;5094730;28;20027;-65
2021/03/16 06:52:58;;;;;;;29.88;4.88;;;;;;;4.69;86.11;102315.91;5097383;28;20020;-65
2021/03/16 06:55:24;;;;;;;29.27;4.53;;;;;;;4.79;86.10;102328.66;5095112;28;20100;-63
2021/03/16 06:57:49;;;;;;;33.10;4.72;;;;;;;4.79;85.79;102312.94;5093671;28;20020;-64
2021/03/16 07:00:15;;;;;;;27.33;4.70;;;;;;;4.77;85.47;102330.28;5095344;28;20035;-67
2021/03/16 07:02:41;;;;;;;30.02;4.30;;;;;;;4.72;86.03;102322.19;5095671;28;20462;-65
2021/03/16 07:05:07;;;;;;;28.52;5.13;;;;;;;4.81;85.49;102324.38;5095388;28;20039;-64
2021/03/16 07:07:33;;;;;;;26.00;4.57;;;;;;;4.82;85.77;102322.63;5093599;28;20115;-63
2021/03/16 07:10:05;;;;;;;28.92;4.90;;;;;;;4.85;84.61;102326.34;5094371;28;20040;-63
2021/03/16 07:12:35;;;;;;;30.55;4.70;;;;;;;4.95;84.78;102321.56;5094736;28;20031;-65
2021/03/16 07:15:04;;;;;;;28.15;4.70;;;;;;;4.99;85.20;102334.00;5091898;28;20099;-64
2021/03/16 07:17:31;;;;;;;30.30;5.00;;;;;;;5.00;84.74;102327.94;5094059;28;20055;-63
2021/03/16 07:20:06;;;;;;;24.92;3.95;;;;;;;5.06;85.01;102328.25;5071932;28;20490;-64
2021/03/16 07:22:47;;;;;;;28.80;5.43;;;;;;;5.04;84.27;102341.28;5093812;28;20069;-64
2021/03/16 07:25:13;;;;;;;30.02;5.13;;;;;;;5.10;84.13;102343.31;5095191;28;20043;-63
2021/03/16 07:27:40;;;;;;;25.40;4.80;;;;;;;5.15;84.46;102341.81;5094314;28;20681;-63
2021/03/16 07:30:07;;;;;;;28.42;5.15;;;;;;;5.17;84.69;102345.41;5075389;28;20028;-63
2021/03/16 07:32:33;;;;;;;27.05;5.07;;;;;;;5.23;83.63;102352.69;5094935;28;20382;-64
2021/03/16 07:35:01;;;;;;;29.42;5.43;;;;;;;5.22;83.65;102356.13;5094906;28;20020;-63
2021/03/16 07:37:28;;;;;;;28.40;5.15;;;;;;;5.24;83.32;102349.22;5093636;28;20048;-64
2021/03/16 07:39:54;;;;;;;25.05;4.22;;;;;;;5.28;82.71;102348.56;5093885;28;20546;-63
2021/03/16 07:42:20;;;;;;;29.98;5.15;;;;;;;5.20;83.46;102345.56;5093689;28;20387;-70
2021/03/16 07:44:46;;;;;;;27.08;5.53;;;;;;;5.30;83.73;102348.66;5094170;28;20031;-64
2021/03/16 07:47:11;;;;;;;26.17;4.80;;;;;;;5.40;82.69;102349.19;5093511;28;20417;-73
2021/03/16 07:49:39;;;;;;;25.90;5.13;;;;;;;5.35;82.48;102349.78;5092655;28;20084;-74
2021/03/16 07:52:19;;;;;;;31.45;6.10;;;;;;;5.32;82.06;102350.53;5095224;28;20024;-72
2021/03/16 07:54:47;;;;;;;28.58;5.35;;;;;;;5.41;82.59;102352.72;5091863;28;20021;-73
2021/03/16 07:57:12;;;;;;;31.02;5.95;;;;;;;5.46;82.09;102358.19;5097040;28;20027;-72
2021/03/16 07:59:37;;;;;;;28.92;5.93;;;;;;;5.50;82.09;102358.41;5094115;28;20036;-74
2021/03/16 08:02:04;;;;;;;29.15;5.88;;;;;;;5.58;81.61;102359.69;5094226;28;20027;-72
2021/03/16 08:04:40;;;;;;;24.63;4.72;;;;;;;5.68;81.07;102352.25;5093607;28;20108;-73
2021/03/16 08:07:12;;;;;;;33.00;6.28;;;;;;;5.66;81.42;102361.78;5093559;28;20823;-75
2021/03/16 08:09:45;;;;;;;25.95;5.50;;;;;;;5.84;81.38;102362.69;5092744;28;20035;-75
2021/03/16 08:12:18;;;;;;;29.17;4.90;;;;;;;5.85;79.13;102358.31;5091830;28;20020;-75
2021/03/16 08:14:44;;;;;;;21.80;3.63;;;;;;;5.93;78.98;102363.09;5094830;28;20513;-73
2021/03/16 08:17:09;;;;;;;23.60;4.00;;;;;;;6.00;78.71;102345.97;5074510;28;20044;-72
2021/03/16 08:19:39;;;;;;;27.60;5.18;;;;;;;6.07;78.05;102368.13;5091749;28;20042;-75
2021/03/16 08:22:05;;;;;;;21.65;3.55;;;;;;;6.23;77.83;102370.69;5089879;28;20032;-72
2021/03/16 08:24:38;;;;;;;24.60;4.95;;;;;;;6.18;78.13;102372.16;5091518;28;20446;-74
2021/03/16 08:27:11;;;;;;;26.23;4.45;;;;;;;6.11;77.84;102370.09;5091876;28;20024;-71
2021/03/16 08:29:44;;;;;;;28.42;4.80;;;;;;;5.86;78.35;102370.63;5092672;28;20028;-72
2021/03/16 08:32:15;;;;;;;27.65;4.40;;;;;;;6.10;78.35;102373.53;5093175;28;20087;-73
2021/03/16 08:34:41;;;;;;;24.77;4.32;;;;;;;6.20;77.85;102375.75;5093034;28;20031;-73
2021/03/16 08:37:06;;;;;;;22.88;4.00;;;;;;;6.03;77.93;102376.69;5093103;28;20016;-73
2021/03/16 08:39:31;;;;;;;26.85;4.60;;;;;;;5.98;78.59;102367.72;5093172;28;20497;-72
2021/03/16 08:41:59;;;;;;;20.15;3.60;;;;;;;6.15;77.00;102360.66;5093494;28;20374;-72
2021/03/16 08:44:26;;;;;;;26.42;4.10;;;;;;;6.24;76.21;102359.31;5092577;28;20043;-73
2021/03/16 08:46:53;;;;;;;22.10;4.03;;;;;;;6.17;77.46;102365.13;5091782;28;20129;-73
2021/03/16 08:49:24;;;;;;;24.52;4.60;;;;;;;6.27;77.86;102372.59;5091947;28;20035;-73
2021/03/16 08:51:49;;;;;;;25.58;5.72;;;;;;;6.33;75.68;102381.59;5093082;28;20031;-73
2021/03/16 08:54:25;;;;;;;26.05;4.72;;;;;;;6.23;76.64;102368.06;5092375;28;20394;-73
2021/03/16 08:56:51;;;;;;;23.40;4.45;;;;;;;6.29;75.67;102367.41;5090652;28;20020;-73
2021/03/16 08:59:21;;;;;;;24.08;5.03;;;;;;;6.32;74.73;102366.66;5091627;28;20419;-73
2021/03/16 09:01:51;;;;;;;24.10;4.63;;;;;;;6.53;75.57;102365.00;5089967;28;20020;-70
2021/03/16 09:04:17;;;;;;;27.35;5.18;;;;;;;6.55;73.33;102372.97;5093607;28;20024;-73
2021/03/16 09:06:43;;;;;;;25.63;4.50;;;;;;;6.56;73.54;102365.16;5091569;28;20027;-74
2021/03/16 09:09:10;;;;;;;23.85;4.70;;;;;;;6.59;73.76;102381.03;5092866;28;20028;-70
2021/03/16 09:11:43;;;;;;;22.70;4.97;;;;;;;6.68;73.50;102384.94;5091926;28;20024;-67
2021/03/16 09:14:18;;;;;;;23.83;4.07;;;;;;;6.85;74.05;102380.44;5070089;28;20501;-67
2021/03/16 09:17:01;;;;;;;25.75;4.60;;;;;;;6.97;73.65;102384.50;5091214;28;20052;-71
2021/03/16 09:19:28;;;;;;;22.35;4.45;;;;;;;7.06;74.06;102385.72;5092843;28;20043;-74
2021/03/16 09:21:56;;;;;;;17.40;3.28;;;;;;;7.12;70.96;102380.72;5091521;28;20149;-75
2021/03/16 09:24:27;;;;;;;16.83;3.05;;;;;;;7.12;72.15;102385.97;5092561;28;20035;-71
2021/03/16 09:27:00;;;;;;;21.48;3.38;;;;;;;7.23;71.63;102394.34;5089869;28;20489;-72
2021/03/16 09:29:29;;;;;;;17.48;3.17;;;;;;;7.20;71.56;102387.22;5092420;28;20051;-74
2021/03/16 09:31:58;;;;;;;21.05;2.92;;;;;;;7.23;70.18;102386.44;5091710;28;20100;-74
2021/03/16 09:34:24;;;;;;;17.52;2.88;;;;;;;7.10;70.81;102380.66;5092360;28;20076;-74
2021/03/16 09:36:58;;;;;;;22.80;3.40;;;;;;;6.92;70.90;102385.13;5092827;28;20378;-74
2021/03/16 09:39:24;;;;;;;22.00;3.80;;;;;;;7.09;71.34;102381.50;5090753;28;20031;-73
2021/03/16 09:41:57;;;;;;;18.50;3.10;;;;;;;7.06;71.88;102388.34;5092194;28;20023;-74
2021/03/16 09:44:27;;;;;;;22.55;3.92;;;;;;;7.10;71.81;102377.13;5091140;28;20133;-73
2021/03/16 09:46:53;;;;;;;24.88;3.55;;;;;;;7.10;72.35;102379.75;5093660;28;20024;-78
2021/03/16 09:49:27;;;;;;;21.88;3.53;;;;;;;6.81;73.04;102382.00;5091262;28;20509;-76
2021/03/16 09:51:52;;;;;;;19.35;3.15;;;;;;;6.65;72.58;102383.06;5091301;28;20102;-76
2021/03/16 09:54:17;;;;;;;23.13;3.83;;;;;;;6.65;73.02;102375.16;5091972;28;20102;-77
2021/03/16 09:56:50;;;;;;;22.55;3.70;;;;;;;6.72;73.25;102384.25;5092409;28;20420;-74
2021/03/16 09:59:15;;;;;;;17.98;3.05;;;;;;;6.73;73.28;102384.31;5090713;28;20368;-75
2021/03/16 10:01:42;;;;;;;24.77;3.83;;;;;;;6.54;72.57;102376.41;5091969;28;20036;-73
2021/03/16 10:04:12;;;;;;;20.88;3.63;;;;;;;6.72;73.10;102385.13;5091342;28;20035;-71
2021/03/16 10:06:39;;;;;;;22.83;3.65;;;;;;;6.58;73.95;102387.16;5089743;28;20077;-76
2021/03/16 10:09:17;;;;;;;21.48;3.83;;;;;;;6.86;72.66;102382.22;5060231;28;20040;-72
2021/03/16 10:11:42;;;;;;;21.77;4.07;;;;;;;6.74;73.70;102379.94;5097080;28;20104;-75
2021/03/16 10:14:08;;;;;;;23.38;4.32;;;;;;;6.56;74.63;102395.78;5096256;28;20099;-73
2021/03/16 10:16:33;;;;;;;21.30;4.07;;;;;;;6.51;75.76;102408.72;5094882;28;20051;-77
2021/03/16 10:18:58;;;;;;;20.85;3.10;;;;;;;6.21;76.84;102408.19;5095000;28;20443;-73
2021/03/16 10:21:32;;;;;;;18.02;3.20;;;;;;;6.16;76.29;102402.72;5094128;28;20244;-72
2021/03/16 10:23:59;;;;;;;20.50;3.60;;;;;;;6.16;76.55;102407.06;5095408;28;20020;-78
2021/03/16 10:26:25;;;;;;;20.30;3.90;;;;;;;5.89;73.06;102404.88;5094890;28;20016;-72
2021/03/16 10:28:50;;;;;;;16.70;3.25;;;;;;;5.48;73.73;102407.28;5094229;28;20059;-72
2021/03/16 10:31:24;;;;;;;12.73;2.60;;;;;;;5.73;73.32;102405.88;5095982;28;20035;-78
2021/03/16 10:33:55;;;;;;;14.88;3.38;;;;;;;5.73;74.32;102405.88;5092304;28;20125;-76
2021/03/16 10:36:22;;;;;;;16.92;3.78;;;;;;;5.66;76.04;102411.63;5094649;28;20478;-76
2021/03/16 10:38:49;;;;;;;16.23;3.75;;;;;;;5.36;78.56;102401.44;5095854;28;20028;-76
2021/03/16 10:41:19;;;;;;;15.07;3.03;;;;;;;5.52;77.36;102400.44;5095046;28;20059;-73
2021/03/16 10:43:45;;;;;;;16.52;3.30;;;;;;;5.64;78.76;102413.28;5094943;28;20076;-72
2021/03/16 10:46:11;;;;;;;14.60;3.28;;;;;;;5.51;77.31;102407.41;5095581;28;20412;-76
2021/03/16 10:48:36;;;;;;;15.95;3.22;;;;;;;5.68;78.74;102405.66;5094543;28;20028;-73
2021/03/16 10:51:03;;;;;;;15.77;2.80;;;;;;;5.79;78.08;102398.28;5095991;28;20157;-73
2021/03/16 10:53:29;;;;;;;14.38;2.92;;;;;;;5.91;76.75;102398.91;5094371;28;20020;-78
2021/03/16 10:55:54;;;;;;;14.93;2.70;;;;;;;6.00;75.74;102397.56;5094499;28;20035;-74
2021/03/16 10:58:19;;;;;;;11.20;2.40;;;;;;;5.92;76.38;102384.91;5094224;28;20121;-72
2021/03/16 11:00:45;;;;;;;14.85;2.80;;;;;;;6.03;77.47;102388.13;5095522;28;20031;-73
2021/03/16 11:03:10;;;;;;;16.50;3.33;;;;;;;5.89;73.97;102387.41;5091636;28;20111;-70
2021/03/16 11:05:36;;;;;;;15.88;2.70;;;;;;;5.69;74.93;102390.78;5095201;28;20113;-73
2021/03/16 11:08:01;;;;;;;14.05;2.55;;;;;;;5.76;74.35;102391.16;5093833;28;20467;-73
2021/03/16 11:10:26;;;;;;;15.25;2.50;;;;;;;5.85;74.81;102395.94;5093313;28;20069;-74
2021/03/16 11:12:52;;;;;;;9.80;2.50;;;;;;;5.87;76.47;102398.69;5093878;28;20077;-74
2021/03/16 11:15:18;;;;;;;14.50;2.70;;;;;;;5.94;76.54;102398.13;5096376;28;20032;-65
2021/03/16 11:17:44;;;;;;;16.23;2.63;;;;;;;6.06;76.95;102390.00;5093928;28;20017;-74
2021/03/16 11:20:10;;;;;;;21.15;2.80;;;;;;;6.23;75.55;102393.38;5094340;28;20019;-75
2021/03/16 11:22:36;;;;;;;12.98;2.55;;;;;;;6.15;73.23;102402.66;5092705;28;20028;-74
2021/03/16 11:25:01;;;;;;;14.45;2.25;;;;;;;5.99;74.13;102399.28;5095288;28;20016;-72